sensor_id;sensor_type;location;lat;lon;timestamp;temperature;humidity
7530;DHT22;3806;52.270;10.544;2024-01-27T00:01:23;6.50;99.90
7530;DHT22;3806;52.270;10.544;2024-01-27T00:03:49;6.50;99.90
7530;DHT22;3806;52.270;10.544;2024-01-27T00:06:15;6.50;99.90
7530;DHT22;3806;52.270;10.544;2024-01-27T00:08:41;6.50;99.90
7530;DHT22;3806;52.270;10.544;2024-01-27T00:11:06;6.50;99.90
7530;DHT22;3806;52.270;10.544;2024-01-27T00:13:32;6.50;99.90
7530;DHT22;3806;52.270;10.544;2024-01-27T00:15:57;6.50;99.90
7530;DHT22;3806;52.270;10.544;2024-01-27T00:18:23;6.50;99.90
7530;DHT22;3806;52.270;10.544;2024-01-27T00:20:49;6.50;99.90
7530;DHT22;3806;52.270;10.544;2024-01-27T00:23:14;6.50;99.90
7530;DHT22;3806;52.270;10.544;2024-01-27T00:25:40;6.50;99.90
7530;DHT22;3806;52.270;10.544;2024-01-27T00:28:05;6.50;99.90
7530;DHT22;3806;52.270;10.544;2024-01-27T00:30:31;6.50;99.90
7530;DHT22;3806;52.270;10.544;2024-01-27T00:32:56;6.50;99.90
7530;DHT22;3806;52.270;10.544;2024-01-27T00:35:23;6.60;99.90
7530;DHT22;3806;52.270;10.544;2024-01-27T00:37:48;6.60;99.90
7530;DHT22;3806;52.270;10.544;2024-01-27T00:40:14;6.60;99.90
7530;DHT22;3806;52.270;10.544;2024-01-27T00:42:40;6.60;99.90
7530;DHT22;3806;52.270;10.544;2024-01-27T00:45:06;6.60;99.90
7530;DHT22;3806;52.270;10.544;2024-01-27T00:47:31;6.60;99.90
7530;DHT22;3806;52.270;10.544;2024-01-27T00:49:57;6.60;99.90
7530;DHT22;3806;52.270;10.544;2024-01-27T00:52:23;6.70;99.90
7530;DHT22;3806;52.270;10.544;2024-01-27T00:54:48;6.70;99.90
7530;DHT22;3806;52.270;10.544;2024-01-27T00:57:14;6.60;99.90
7530;DHT22;3806;52.270;10.544;2024-01-27T00:59:40;6.60;99.90
7530;DHT22;3806;52.270;10.544;2024-01-27T01:02:06;6.60;99.90
7530;DHT22;3806;52.270;10.544;2024-01-27T01:04:32;6.60;99.90
7530;DHT22;3806;52.270;10.544;2024-01-27T01:06:58;6.60;99.90
7530;DHT22;3806;52.270;10.544;2024-01-27T01:09:24;6.60;99.90
7530;DHT22;3806;52.270;10.544;2024-01-27T01:11:49;6.60;99.90
7530;DHT22;3806;52.270;10.544;2024-01-27T01:14:15;6.50;99.90
7530;DHT22;3806;52.270;10.544;2024-01-27T01:16:40;6.50;99.90
7530;DHT22;3806;52.270;10.544;2024-01-27T01:19:06;6.50;99.90
7530;DHT22;3806;52.270;10.544;2024-01-27T01:21:32;6.40;99.90
7530;DHT22;3806;52.270;10.544;2024-01-27T01:23:58;6.40;99.90
7530;DHT22;3806;52.270;10.544;2024-01-27T01:26:24;6.30;99.90
7530;DHT22;3806;52.270;10.544;2024-01-27T01:28:50;6.30;99.90
7530;DHT22;3806;52.270;10.544;2024-01-27T01:31:16;6.30;99.90
7530;DHT22;3806;52.270;10.544;2024-01-27T01:33:42;6.20;99.90
7530;DHT22;3806;52.270;10.544;2024-01-27T01:36:08;6.20;99.90
7530;DHT22;3806;52.270;10.544;2024-01-27T01:38:33;6.20;99.90
7530;DHT22;3806;52.270;10.544;2024-01-27T01:40:59;6.10;99.90
7530;DHT22;3806;52.270;10.544;2024-01-27T01:43:24;6.10;99.90
7530;DHT22;3806;52.270;10.544;2024-01-27T01:45:51;6.10;99.90
7530;DHT22;3806;52.270;10.544;2024-01-27T01:48:19;6.10;99.90
7530;DHT22;3806;52.270;10.544;2024-01-27T01:50:44;6.00;99.90
7530;DHT22;3806;52.270;10.544;2024-01-27T01:53:11;6.00;99.90
7530;DHT22;3806;52.270;10.544;2024-01-27T01:55:37;6.00;99.90
7530;DHT22;3806;52.270;10.544;2024-01-27T01:58:03;6.00;99.90
7530;DHT22;3806;52.270;10.544;2024-01-27T02:00:29;6.00;99.90
7530;DHT22;3806;52.270;10.544;2024-01-27T02:02:55;6.00;99.90
7530;DHT22;3806;52.270;10.544;2024-01-27T02:05:22;6.00;99.90
7530;DHT22;3806;52.270;10.544;2024-01-27T02:07:47;6.00;99.90
7530;DHT22;3806;52.270;10.544;2024-01-27T02:10:15;6.00;99.90
7530;DHT22;3806;52.270;10.544;2024-01-27T02:12:44;6.10;99.90
7530;DHT22;3806;52.270;10.544;2024-01-27T02:15:11;6.10;99.90
7530;DHT22;3806;52.270;10.544;2024-01-27T02:17:40;6.10;99.90
7530;DHT22;3806;52.270;10.544;2024-01-27T02:20:06;6.20;99.90
7530;DHT22;3806;52.270;10.544;2024-01-27T02:22:36;6.20;99.90
7530;DHT22;3806;52.270;10.544;2024-01-27T02:25:02;6.30;99.90
7530;DHT22;3806;52.270;10.544;2024-01-27T02:27:28;6.30;99.90
7530;DHT22;3806;52.270;10.544;2024-01-27T02:29:53;6.40;99.90
7530;DHT22;3806;52.270;10.544;2024-01-27T02:32:19;6.40;99.90
7530;DHT22;3806;52.270;10.544;2024-01-27T02:34:44;6.40;99.90
7530;DHT22;3806;52.270;10.544;2024-01-27T02:37:10;6.40;99.90
7530;DHT22;3806;52.270;10.544;2024-01-27T02:39:35;6.50;99.90
7530;DHT22;3806;52.270;10.544;2024-01-27T02:42:02;6.40;99.90
7530;DHT22;3806;52.270;10.544;2024-01-27T02:44:27;6.50;99.90
7530;DHT22;3806;52.270;10.544;2024-01-27T02:46:53;6.50;99.90
7530;DHT22;3806;52.270;10.544;2024-01-27T02:49:18;6.50;99.90
7530;DHT22;3806;52.270;10.544;2024-01-27T02:51:44;6.50;99.90
7530;DHT22;3806;52.270;10.544;2024-01-27T02:54:10;6.50;99.90
7530;DHT22;3806;52.270;10.544;2024-01-27T02:56:35;6.50;99.90
7530;DHT22;3806;52.270;10.544;2024-01-27T02:59:01;6.50;99.90
7530;DHT22;3806;52.270;10.544;2024-01-27T03:01:27;6.50;99.90
7530;DHT22;3806;52.270;10.544;2024-01-27T03:03:52;6.50;99.90
7530;DHT22;3806;52.270;10.544;2024-01-27T03:06:18;6.50;99.90
7530;DHT22;3806;52.270;10.544;2024-01-27T03:08:43;6.50;99.90
7530;DHT22;3806;52.270;10.544;2024-01-27T03:11:09;6.50;99.90
7530;DHT22;3806;52.270;10.544;2024-01-27T03:13:34;6.50;99.90
7530;DHT22;3806;52.270;10.544;2024-01-27T03:16:00;6.50;99.90
7530;DHT22;3806;52.270;10.544;2024-01-27T03:18:25;6.50;99.90
7530;DHT22;3806;52.270;10.544;2024-01-27T03:20:51;6.50;99.90
7530;DHT22;3806;52.270;10.544;2024-01-27T03:23:17;6.50;99.90
7530;DHT22;3806;52.270;10.544;2024-01-27T03:25:42;6.50;99.90
7530;DHT22;3806;52.270;10.544;2024-01-27T03:28:08;6.50;99.90
7530;DHT22;3806;52.270;10.544;2024-01-27T03:30:33;6.40;99.90
7530;DHT22;3806;52.270;10.544;2024-01-27T03:32:59;6.50;99.90
7530;DHT22;3806;52.270;10.544;2024-01-27T03:35:24;6.50;99.90
7530;DHT22;3806;52.270;10.544;2024-01-27T03:37:50;6.50;99.90
7530;DHT22;3806;52.270;10.544;2024-01-27T03:40:16;6.40;99.90
7530;DHT22;3806;52.270;10.544;2024-01-27T03:42:42;6.40;99.90
7530;DHT22;3806;52.270;10.544;2024-01-27T03:45:08;6.40;99.90
7530;DHT22;3806;52.270;10.544;2024-01-27T03:47:34;6.40;99.90
7530;DHT22;3806;52.270;10.544;2024-01-27T03:49:59;6.40;99.90
7530;DHT22;3806;52.270;10.544;2024-01-27T03:52:25;6.40;99.90
7530;DHT22;3806;52.270;10.544;2024-01-27T03:54:50;6.40;99.90
7530;DHT22;3806;52.270;10.544;2024-01-27T03:57:16;6.30;99.90
7530;DHT22;3806;52.270;10.544;2024-01-27T03:59:41;6.30;99.90
7530;DHT22;3806;52.270;10.544;2024-01-27T04:02:07;6.20;99.90
7530;DHT22;3806;52.270;10.544;2024-01-27T04:04:32;6.10;99.90
7530;DHT22;3806;52.270;10.544;2024-01-27T04:06:58;6.10;99.90
7530;DHT22;3806;52.270;10.544;2024-01-27T04:09:24;6.00;99.90
7530;DHT22;3806;52.270;10.544;2024-01-27T04:11:49;5.90;99.90
7530;DHT22;3806;52.270;10.544;2024-01-27T04:14:15;5.80;99.90
7530;DHT22;3806;52.270;10.544;2024-01-27T04:16:40;5.80;99.90
7530;DHT22;3806;52.270;10.544;2024-01-27T04:19:06;5.70;99.90
7530;DHT22;3806;52.270;10.544;2024-01-27T04:21:31;5.70;99.90
7530;DHT22;3806;52.270;10.544;2024-01-27T04:23:57;5.60;99.90
7530;DHT22;3806;52.270;10.544;2024-01-27T04:26:22;5.60;99.90
7530;DHT22;3806;52.270;10.544;2024-01-27T04:28:48;5.60;99.90
7530;DHT22;3806;52.270;10.544;2024-01-27T04:31:13;5.50;99.90
7530;DHT22;3806;52.270;10.544;2024-01-27T04:33:39;5.50;99.90
7530;DHT22;3806;52.270;10.544;2024-01-27T04:36:05;5.50;99.90
7530;DHT22;3806;52.270;10.544;2024-01-27T04:38:32;5.50;99.90
7530;DHT22;3806;52.270;10.544;2024-01-27T04:40:58;5.50;99.90
7530;DHT22;3806;52.270;10.544;2024-01-27T04:43:23;5.50;99.90
7530;DHT22;3806;52.270;10.544;2024-01-27T04:45:49;5.40;99.90
7530;DHT22;3806;52.270;10.544;2024-01-27T04:48:15;5.40;99.90
7530;DHT22;3806;52.270;10.544;2024-01-27T04:50:40;5.30;99.90
7530;DHT22;3806;52.270;10.544;2024-01-27T04:53:06;5.30;99.90
7530;DHT22;3806;52.270;10.544;2024-01-27T04:55:32;5.30;99.90
7530;DHT22;3806;52.270;10.544;2024-01-27T04:57:57;5.30;99.90
7530;DHT22;3806;52.270;10.544;2024-01-27T05:00:24;5.20;99.90
7530;DHT22;3806;52.270;10.544;2024-01-27T05:02:52;5.20;99.90
7530;DHT22;3806;52.270;10.544;2024-01-27T05:05:17;5.20;99.90
7530;DHT22;3806;52.270;10.544;2024-01-27T05:07:43;5.10;99.90
7530;DHT22;3806;52.270;10.544;2024-01-27T05:10:10;5.10;99.90
7530;DHT22;3806;52.270;10.544;2024-01-27T05:12:37;5.00;99.90
7530;DHT22;3806;52.270;10.544;2024-01-27T05:15:03;5.00;99.90
7530;DHT22;3806;52.270;10.544;2024-01-27T05:17:29;5.00;99.90
7530;DHT22;3806;52.270;10.544;2024-01-27T05:19:54;5.00;99.90
7530;DHT22;3806;52.270;10.544;2024-01-27T05:22:20;5.00;99.90
7530;DHT22;3806;52.270;10.544;2024-01-27T05:24:45;5.00;99.90
7530;DHT22;3806;52.270;10.544;2024-01-27T05:27:11;5.00;99.90
7530;DHT22;3806;52.270;10.544;2024-01-27T05:29:37;5.00;99.90
7530;DHT22;3806;52.270;10.544;2024-01-27T05:32:03;5.00;99.90
7530;DHT22;3806;52.270;10.544;2024-01-27T05:34:29;5.00;99.90
7530;DHT22;3806;52.270;10.544;2024-01-27T05:36:54;5.00;99.90
7530;DHT22;3806;52.270;10.544;2024-01-27T05:39:20;4.90;99.90
7530;DHT22;3806;52.270;10.544;2024-01-27T05:41:45;5.00;99.90
7530;DHT22;3806;52.270;10.544;2024-01-27T05:44:11;4.90;99.90
7530;DHT22;3806;52.270;10.544;2024-01-27T05:46:36;4.90;99.90
7530;DHT22;3806;52.270;10.544;2024-01-27T05:49:02;4.90;99.90
7530;DHT22;3806;52.270;10.544;2024-01-27T05:51:29;4.90;99.90
7530;DHT22;3806;52.270;10.544;2024-01-27T05:53:55;4.90;99.90
7530;DHT22;3806;52.270;10.544;2024-01-27T05:56:21;4.80;99.90
7530;DHT22;3806;52.270;10.544;2024-01-27T05:58:47;4.80;99.90
7530;DHT22;3806;52.270;10.544;2024-01-27T06:01:13;4.90;99.90
7530;DHT22;3806;52.270;10.544;2024-01-27T06:03:41;4.80;99.90
7530;DHT22;3806;52.270;10.544;2024-01-27T06:06:08;4.80;99.90
7530;DHT22;3806;52.270;10.544;2024-01-27T06:08:33;4.80;99.90
7530;DHT22;3806;52.270;10.544;2024-01-27T06:10:59;4.80;99.90
7530;DHT22;3806;52.270;10.544;2024-01-27T06:13:24;4.70;99.90
7530;DHT22;3806;52.270;10.544;2024-01-27T06:15:50;4.80;99.90
7530;DHT22;3806;52.270;10.544;2024-01-27T06:18:16;4.80;99.90
7530;DHT22;3806;52.270;10.544;2024-01-27T06:20:41;4.70;99.90
7530;DHT22;3806;52.270;10.544;2024-01-27T06:23:07;4.70;99.90
7530;DHT22;3806;52.270;10.544;2024-01-27T06:25:34;4.70;99.90
7530;DHT22;3806;52.270;10.544;2024-01-27T06:27:59;4.70;99.90
7530;DHT22;3806;52.270;10.544;2024-01-27T06:30:25;4.70;99.90
7530;DHT22;3806;52.270;10.544;2024-01-27T06:32:51;4.70;99.90
7530;DHT22;3806;52.270;10.544;2024-01-27T06:35:16;4.70;99.90
7530;DHT22;3806;52.270;10.544;2024-01-27T06:37:42;4.70;99.90
7530;DHT22;3806;52.270;10.544;2024-01-27T06:40:08;4.60;99.90
7530;DHT22;3806;52.270;10.544;2024-01-27T06:42:36;4.70;99.90
7530;DHT22;3806;52.270;10.544;2024-01-27T06:45:02;4.70;99.90
7530;DHT22;3806;52.270;10.544;2024-01-27T06:47:29;4.60;99.90
7530;DHT22;3806;52.270;10.544;2024-01-27T06:49:54;4.60;99.90
7530;DHT22;3806;52.270;10.544;2024-01-27T06:52:20;4.70;99.90
7530;DHT22;3806;52.270;10.544;2024-01-27T06:54:46;4.70;99.90
7530;DHT22;3806;52.270;10.544;2024-01-27T06:57:18;4.70;99.90
7530;DHT22;3806;52.270;10.544;2024-01-27T06:59:46;4.60;99.90
7530;DHT22;3806;52.270;10.544;2024-01-27T07:02:13;4.60;99.90
7530;DHT22;3806;52.270;10.544;2024-01-27T07:04:39;4.60;99.90
7530;DHT22;3806;52.270;10.544;2024-01-27T07:07:05;4.60;99.90
7530;DHT22;3806;52.270;10.544;2024-01-27T07:09:30;4.60;99.90
7530;DHT22;3806;52.270;10.544;2024-01-27T07:11:56;4.60;99.90
7530;DHT22;3806;52.270;10.544;2024-01-27T07:14:22;4.60;99.90
7530;DHT22;3806;52.270;10.544;2024-01-27T07:16:48;4.60;99.90
7530;DHT22;3806;52.270;10.544;2024-01-27T07:19:13;4.60;99.90
7530;DHT22;3806;52.270;10.544;2024-01-27T07:21:41;4.60;99.90
7530;DHT22;3806;52.270;10.544;2024-01-27T07:24:07;4.60;99.90
7530;DHT22;3806;52.270;10.544;2024-01-27T07:26:32;4.70;99.90
7530;DHT22;3806;52.270;10.544;2024-01-27T07:28:58;4.70;99.90
7530;DHT22;3806;52.270;10.544;2024-01-27T07:31:23;4.70;99.90
7530;DHT22;3806;52.270;10.544;2024-01-27T07:33:51;4.80;99.90
7530;DHT22;3806;52.270;10.544;2024-01-27T07:36:17;4.90;99.90
7530;DHT22;3806;52.270;10.544;2024-01-27T07:38:42;4.90;99.90
7530;DHT22;3806;52.270;10.544;2024-01-27T07:41:08;4.90;99.90
7530;DHT22;3806;52.270;10.544;2024-01-27T07:43:34;5.00;99.90
7530;DHT22;3806;52.270;10.544;2024-01-27T07:45:59;5.00;99.90
7530;DHT22;3806;52.270;10.544;2024-01-27T07:48:25;5.10;99.90
7530;DHT22;3806;52.270;10.544;2024-01-27T07:50:50;5.10;99.90
7530;DHT22;3806;52.270;10.544;2024-01-27T07:53:17;5.20;99.90
7530;DHT22;3806;52.270;10.544;2024-01-27T07:55:42;5.20;99.90
7530;DHT22;3806;52.270;10.544;2024-01-27T07:58:08;5.30;99.90
7530;DHT22;3806;52.270;10.544;2024-01-27T08:00:33;5.30;99.90
7530;DHT22;3806;52.270;10.544;2024-01-27T08:02:59;5.40;99.90
7530;DHT22;3806;52.270;10.544;2024-01-27T08:05:25;5.50;99.90
7530;DHT22;3806;52.270;10.544;2024-01-27T08:07:50;5.50;99.90
7530;DHT22;3806;52.270;10.544;2024-01-27T08:10:16;5.60;99.90
7530;DHT22;3806;52.270;10.544;2024-01-27T08:12:41;5.70;99.90
7530;DHT22;3806;52.270;10.544;2024-01-27T08:15:07;5.70;99.90
7530;DHT22;3806;52.270;10.544;2024-01-27T08:17:33;5.80;99.90
7530;DHT22;3806;52.270;10.544;2024-01-27T08:19:58;5.80;99.90
7530;DHT22;3806;52.270;10.544;2024-01-27T08:22:24;5.90;99.90
7530;DHT22;3806;52.270;10.544;2024-01-27T08:24:50;6.10;99.90
7530;DHT22;3806;52.270;10.544;2024-01-27T08:27:15;6.30;99.90
7530;DHT22;3806;52.270;10.544;2024-01-27T08:29:41;7.00;99.90
7530;DHT22;3806;52.270;10.544;2024-01-27T08:32:06;9.30;99.90
7530;DHT22;3806;52.270;10.544;2024-01-27T08:34:32;11.80;97.90
7530;DHT22;3806;52.270;10.544;2024-01-27T08:37:00;14.20;92.90
7530;DHT22;3806;52.270;10.544;2024-01-27T08:39:25;16.30;80.10
7530;DHT22;3806;52.270;10.544;2024-01-27T08:41:51;18.00;66.50
7530;DHT22;3806;52.270;10.544;2024-01-27T08:44:17;19.30;57.50
7530;DHT22;3806;52.270;10.544;2024-01-27T08:46:42;20.30;52.30
7530;DHT22;3806;52.270;10.544;2024-01-27T08:49:08;20.90;49.20
7530;DHT22;3806;52.270;10.544;2024-01-27T08:51:33;20.80;45.90
7530;DHT22;3806;52.270;10.544;2024-01-27T08:53:59;20.60;45.00
7530;DHT22;3806;52.270;10.544;2024-01-27T08:56:25;20.40;44.40
7530;DHT22;3806;52.270;10.544;2024-01-27T08:58:51;19.50;45.20
7530;DHT22;3806;52.270;10.544;2024-01-27T09:01:17;19.30;45.30
7530;DHT22;3806;52.270;10.544;2024-01-27T09:03:43;19.00;45.20
7530;DHT22;3806;52.270;10.544;2024-01-27T09:06:09;18.80;45.40
7530;DHT22;3806;52.270;10.544;2024-01-27T09:08:34;18.10;45.70
7530;DHT22;3806;52.270;10.544;2024-01-27T09:11:01;17.00;46.90
7530;DHT22;3806;52.270;10.544;2024-01-27T09:13:27;15.70;49.20
7530;DHT22;3806;52.270;10.544;2024-01-27T09:15:52;15.40;51.40
7530;DHT22;3806;52.270;10.544;2024-01-27T09:18:18;16.20;51.80
7530;DHT22;3806;52.270;10.544;2024-01-27T09:20:43;17.70;50.40
7530;DHT22;3806;52.270;10.544;2024-01-27T09:23:09;19.20;47.60
7530;DHT22;3806;52.270;10.544;2024-01-27T09:25:34;20.20;44.50
7530;DHT22;3806;52.270;10.544;2024-01-27T09:28:00;21.00;43.50
7530;DHT22;3806;52.270;10.544;2024-01-27T09:30:27;21.40;41.60
7530;DHT22;3806;52.270;10.544;2024-01-27T09:32:52;21.90;40.30
7530;DHT22;3806;52.270;10.544;2024-01-27T09:35:18;22.70;39.80
7530;DHT22;3806;52.270;10.544;2024-01-27T09:37:43;23.00;37.80
7530;DHT22;3806;52.270;10.544;2024-01-27T09:40:12;22.90;37.60
7530;DHT22;3806;52.270;10.544;2024-01-27T09:42:38;23.40;37.30
7530;DHT22;3806;52.270;10.544;2024-01-27T09:45:08;24.40;36.80
7530;DHT22;3806;52.270;10.544;2024-01-27T09:47:35;25.80;35.10
7530;DHT22;3806;52.270;10.544;2024-01-27T09:50:01;26.60;32.40
7530;DHT22;3806;52.270;10.544;2024-01-27T09:52:27;27.30;30.60
7530;DHT22;3806;52.270;10.544;2024-01-27T09:54:52;27.80;29.20
7530;DHT22;3806;52.270;10.544;2024-01-27T09:57:18;28.10;28.60
7530;DHT22;3806;52.270;10.544;2024-01-27T09:59:46;28.50;27.90
7530;DHT22;3806;52.270;10.544;2024-01-27T10:02:14;28.70;27.60
7530;DHT22;3806;52.270;10.544;2024-01-27T10:04:41;28.10;26.70
7530;DHT22;3806;52.270;10.544;2024-01-27T10:07:07;26.60;27.50
7530;DHT22;3806;52.270;10.544;2024-01-27T10:09:33;24.40;28.80
7530;DHT22;3806;52.270;10.544;2024-01-27T10:12:01;21.90;30.70
7530;DHT22;3806;52.270;10.544;2024-01-27T10:14:40;20.00;33.10
7530;DHT22;3806;52.270;10.544;2024-01-27T10:17:10;18.10;35.60
7530;DHT22;3806;52.270;10.544;2024-01-27T10:19:36;16.60;38.30
7530;DHT22;3806;52.270;10.544;2024-01-27T10:22:01;15.60;40.30
7530;DHT22;3806;52.270;10.544;2024-01-27T10:24:31;14.80;42.00
7530;DHT22;3806;52.270;10.544;2024-01-27T10:27:01;14.00;43.60
7530;DHT22;3806;52.270;10.544;2024-01-27T10:29:27;13.50;45.90
7530;DHT22;3806;52.270;10.544;2024-01-27T10:31:53;13.10;47.40
7530;DHT22;3806;52.270;10.544;2024-01-27T10:34:22;12.90;48.60
7530;DHT22;3806;52.270;10.544;2024-01-27T10:36:47;12.60;50.20
7530;DHT22;3806;52.270;10.544;2024-01-27T10:39:22;12.40;51.50
7530;DHT22;3806;52.270;10.544;2024-01-27T10:41:50;12.40;53.20
7530;DHT22;3806;52.270;10.544;2024-01-27T10:44:17;12.20;55.10
7530;DHT22;3806;52.270;10.544;2024-01-27T10:46:44;12.10;56.40
7530;DHT22;3806;52.270;10.544;2024-01-27T10:49:16;12.10;57.50
7530;DHT22;3806;52.270;10.544;2024-01-27T10:51:50;12.00;59.00
7530;DHT22;3806;52.270;10.544;2024-01-27T10:54:23;11.90;61.00
7530;DHT22;3806;52.270;10.544;2024-01-27T10:56:55;11.80;62.80
7530;DHT22;3806;52.270;10.544;2024-01-27T10:59:21;11.80;64.40
7530;DHT22;3806;52.270;10.544;2024-01-27T11:01:49;11.70;65.60
7530;DHT22;3806;52.270;10.544;2024-01-27T11:04:21;11.70;67.60
7530;DHT22;3806;52.270;10.544;2024-01-27T11:06:48;11.70;68.50
7530;DHT22;3806;52.270;10.544;2024-01-27T11:09:14;11.60;68.60
7530;DHT22;3806;52.270;10.544;2024-01-27T11:11:43;11.60;69.00
7530;DHT22;3806;52.270;10.544;2024-01-27T11:14:10;11.50;70.10
7530;DHT22;3806;52.270;10.544;2024-01-27T11:16:36;11.30;71.40
7530;DHT22;3806;52.270;10.544;2024-01-27T11:19:09;11.20;72.70
7530;DHT22;3806;52.270;10.544;2024-01-27T11:21:35;11.10;74.40
7530;DHT22;3806;52.270;10.544;2024-01-27T11:24:11;11.00;75.90
7530;DHT22;3806;52.270;10.544;2024-01-27T11:26:37;10.90;77.80
7530;DHT22;3806;52.270;10.544;2024-01-27T11:29:06;10.80;78.80
7530;DHT22;3806;52.270;10.544;2024-01-27T11:31:32;10.70;79.80
7530;DHT22;3806;52.270;10.544;2024-01-27T11:33:58;10.50;80.70
7530;DHT22;3806;52.270;10.544;2024-01-27T11:36:24;10.50;82.90
7530;DHT22;3806;52.270;10.544;2024-01-27T11:38:50;10.40;83.80
7530;DHT22;3806;52.270;10.544;2024-01-27T11:41:26;10.30;85.20
7530;DHT22;3806;52.270;10.544;2024-01-27T11:43:53;10.20;86.70
7530;DHT22;3806;52.270;10.544;2024-01-27T11:46:19;10.10;87.90
7530;DHT22;3806;52.270;10.544;2024-01-27T11:48:45;10.00;89.40
7530;DHT22;3806;52.270;10.544;2024-01-27T11:51:11;9.90;91.00
7530;DHT22;3806;52.270;10.544;2024-01-27T11:53:38;9.90;91.50
7530;DHT22;3806;52.270;10.544;2024-01-27T11:56:04;9.80;91.80
7530;DHT22;3806;52.270;10.544;2024-01-27T11:58:30;9.70;92.00
7530;DHT22;3806;52.270;10.544;2024-01-27T12:00:56;9.70;92.40
7530;DHT22;3806;52.270;10.544;2024-01-27T12:03:22;9.60;92.80
7530;DHT22;3806;52.270;10.544;2024-01-27T12:05:48;9.60;93.20
7530;DHT22;3806;52.270;10.544;2024-01-27T12:08:13;9.60;93.60
7530;DHT22;3806;52.270;10.544;2024-01-27T12:10:39;9.70;93.60
7530;DHT22;3806;52.270;10.544;2024-01-27T12:13:05;9.70;93.80
7530;DHT22;3806;52.270;10.544;2024-01-27T12:15:30;9.70;93.90
7530;DHT22;3806;52.270;10.544;2024-01-27T12:17:56;9.70;93.80
7530;DHT22;3806;52.270;10.544;2024-01-27T12:20:25;9.60;93.60
7530;DHT22;3806;52.270;10.544;2024-01-27T12:23:02;9.50;93.50
7530;DHT22;3806;52.270;10.544;2024-01-27T12:25:28;9.50;93.60
7530;DHT22;3806;52.270;10.544;2024-01-27T12:27:53;9.50;93.90
7530;DHT22;3806;52.270;10.544;2024-01-27T12:30:19;9.40;93.80
7530;DHT22;3806;52.270;10.544;2024-01-27T12:32:46;9.30;94.00
7530;DHT22;3806;52.270;10.544;2024-01-27T12:35:12;9.30;94.10
7530;DHT22;3806;52.270;10.544;2024-01-27T12:37:38;9.30;94.40
7530;DHT22;3806;52.270;10.544;2024-01-27T12:40:17;9.30;94.60
7530;DHT22;3806;52.270;10.544;2024-01-27T12:42:44;9.30;94.60
7530;DHT22;3806;52.270;10.544;2024-01-27T12:45:09;9.30;94.50
7530;DHT22;3806;52.270;10.544;2024-01-27T12:47:35;9.30;94.60
7530;DHT22;3806;52.270;10.544;2024-01-27T12:50:00;9.30;94.70
7530;DHT22;3806;52.270;10.544;2024-01-27T12:52:26;9.30;95.00
7530;DHT22;3806;52.270;10.544;2024-01-27T12:54:51;9.30;95.10
7530;DHT22;3806;52.270;10.544;2024-01-27T12:57:17;9.30;95.30
7530;DHT22;3806;52.270;10.544;2024-01-27T12:59:43;9.40;95.30
7530;DHT22;3806;52.270;10.544;2024-01-27T13:02:08;9.40;95.20
7530;DHT22;3806;52.270;10.544;2024-01-27T13:04:34;9.40;95.20
7530;DHT22;3806;52.270;10.544;2024-01-27T13:07:00;9.40;95.20
7530;DHT22;3806;52.270;10.544;2024-01-27T13:09:25;9.40;95.30
7530;DHT22;3806;52.270;10.544;2024-01-27T13:11:51;9.50;95.50
7530;DHT22;3806;52.270;10.544;2024-01-27T13:14:17;9.60;95.50
7530;DHT22;3806;52.270;10.544;2024-01-27T13:16:44;9.60;95.60
7530;DHT22;3806;52.270;10.544;2024-01-27T13:19:09;9.70;95.70
7530;DHT22;3806;52.270;10.544;2024-01-27T13:21:35;10.00;95.10
7530;DHT22;3806;52.270;10.544;2024-01-27T13:24:00;10.70;94.00
7530;DHT22;3806;52.270;10.544;2024-01-27T13:26:27;11.50;92.20
7530;DHT22;3806;52.270;10.544;2024-01-27T13:28:53;12.40;90.00
7530;DHT22;3806;52.270;10.544;2024-01-27T13:31:18;13.10;84.70
7530;DHT22;3806;52.270;10.544;2024-01-27T13:33:44;13.80;79.10
7530;DHT22;3806;52.270;10.544;2024-01-27T13:36:10;14.40;74.40
7530;DHT22;3806;52.270;10.544;2024-01-27T13:38:35;14.90;70.70
7530;DHT22;3806;52.270;10.544;2024-01-27T13:41:01;15.30;67.30
7530;DHT22;3806;52.270;10.544;2024-01-27T13:43:27;15.40;63.80
7530;DHT22;3806;52.270;10.544;2024-01-27T13:45:52;15.50;62.60
7530;DHT22;3806;52.270;10.544;2024-01-27T13:48:20;15.50;61.30
7530;DHT22;3806;52.270;10.544;2024-01-27T13:50:46;15.60;61.00
7530;DHT22;3806;52.270;10.544;2024-01-27T13:53:11;15.60;60.60
7530;DHT22;3806;52.270;10.544;2024-01-27T13:55:37;15.70;59.50
7530;DHT22;3806;52.270;10.544;2024-01-27T13:58:03;15.60;59.10
7530;DHT22;3806;52.270;10.544;2024-01-27T14:00:29;15.60;59.10
7530;DHT22;3806;52.270;10.544;2024-01-27T14:02:56;15.70;59.20
7530;DHT22;3806;52.270;10.544;2024-01-27T14:05:21;15.70;58.70
7530;DHT22;3806;52.270;10.544;2024-01-27T14:07:47;15.70;58.40
7530;DHT22;3806;52.270;10.544;2024-01-27T14:10:13;15.60;58.50
7530;DHT22;3806;52.270;10.544;2024-01-27T14:12:38;15.50;58.20
7530;DHT22;3806;52.270;10.544;2024-01-27T14:15:05;15.40;58.20
7530;DHT22;3806;52.270;10.544;2024-01-27T14:17:33;15.10;58.00
7530;DHT22;3806;52.270;10.544;2024-01-27T14:19:59;14.90;58.60
7530;DHT22;3806;52.270;10.544;2024-01-27T14:22:25;14.70;58.90
7530;DHT22;3806;52.270;10.544;2024-01-27T14:24:50;14.60;59.50
7530;DHT22;3806;52.270;10.544;2024-01-27T14:27:16;14.40;59.90
7530;DHT22;3806;52.270;10.544;2024-01-27T14:29:43;14.20;60.40
7530;DHT22;3806;52.270;10.544;2024-01-27T14:32:08;13.90;61.50
7530;DHT22;3806;52.270;10.544;2024-01-27T14:34:34;13.40;62.80
7530;DHT22;3806;52.270;10.544;2024-01-27T14:36:59;12.90;64.30
7530;DHT22;3806;52.270;10.544;2024-01-27T14:39:27;12.50;66.50
7530;DHT22;3806;52.270;10.544;2024-01-27T14:41:53;12.00;69.10
7530;DHT22;3806;52.270;10.544;2024-01-27T14:44:18;11.70;71.60
7530;DHT22;3806;52.270;10.544;2024-01-27T14:46:44;11.40;73.50
7530;DHT22;3806;52.270;10.544;2024-01-27T14:49:09;11.30;75.10
7530;DHT22;3806;52.270;10.544;2024-01-27T14:51:35;11.20;76.60
7530;DHT22;3806;52.270;10.544;2024-01-27T14:54:01;11.00;78.30
7530;DHT22;3806;52.270;10.544;2024-01-27T14:56:30;10.80;79.90
7530;DHT22;3806;52.270;10.544;2024-01-27T14:58:56;10.70;81.30
7530;DHT22;3806;52.270;10.544;2024-01-27T15:01:22;10.60;83.30
7530;DHT22;3806;52.270;10.544;2024-01-27T15:03:48;10.50;84.60
7530;DHT22;3806;52.270;10.544;2024-01-27T15:06:14;10.50;85.80
7530;DHT22;3806;52.270;10.544;2024-01-27T15:08:39;10.40;86.80
7530;DHT22;3806;52.270;10.544;2024-01-27T15:11:05;10.10;88.50
7530;DHT22;3806;52.270;10.544;2024-01-27T15:13:31;9.90;90.60
7530;DHT22;3806;52.270;10.544;2024-01-27T15:15:56;9.80;91.50
7530;DHT22;3806;52.270;10.544;2024-01-27T15:18:22;9.60;92.40
7530;DHT22;3806;52.270;10.544;2024-01-27T15:20:48;9.50;93.30
7530;DHT22;3806;52.270;10.544;2024-01-27T15:23:13;9.30;94.00
7530;DHT22;3806;52.270;10.544;2024-01-27T15:25:39;9.20;94.60
7530;DHT22;3806;52.270;10.544;2024-01-27T15:28:05;9.10;95.30
7530;DHT22;3806;52.270;10.544;2024-01-27T15:30:30;9.00;95.70
7530;DHT22;3806;52.270;10.544;2024-01-27T15:32:56;8.90;96.10
7530;DHT22;3806;52.270;10.544;2024-01-27T15:35:21;8.90;96.60
7530;DHT22;3806;52.270;10.544;2024-01-27T15:37:47;8.80;97.00
7530;DHT22;3806;52.270;10.544;2024-01-27T15:40:12;8.70;97.20
7530;DHT22;3806;52.270;10.544;2024-01-27T15:42:38;8.60;97.50
7530;DHT22;3806;52.270;10.544;2024-01-27T15:45:04;8.60;97.80
7530;DHT22;3806;52.270;10.544;2024-01-27T15:47:30;8.50;98.10
7530;DHT22;3806;52.270;10.544;2024-01-27T15:49:56;8.40;98.30